Unionville, Illinois
Current Conditions -  °F | °C
As of 12:15 AM on Friday 19 Dec 2014 (Local Time) from KM30 Reporting Station
Overcast Overcast  
Wind Chill: 34°   Ceiling: 4500
Heat Index: 34°   Visibility: 7mi
Dew Point: 33°   Wind: 0mph
Humidity: 95%   Direction: NA
Pressure: 30.27"   Gusts: NA
Location:  37.1362°N, 88.5694°W
Report Text: KM30 190615Z AUTO 00000KT 7SM OVC045 01/01 A3027 RMK AO2 T00130006
Loading
Personal Weather Stations






























Interactive Weather Map New forecast layout! Learn more

10-Day Weather Forecast

Advertisements
Track Severe Weather on mobile